• Join FlightAware (Why Join?)
  • Login
  • US Flag 
01:00AM EDT


 

Airport Tracker/Info


-or-


 

Live Flight TrackerFlight Track Log ✈ GJS3615 ✈ 15-Jun-2013 ✈ KMSP - KDEN

Flight Track Log - Related Links

Times and Time Zones

All times are in EDT time to prevent confusion due to time zone crossing. See the GJS3615 flight status page for this flight to view local times or setup timezone preferences in your user account.

Time Position Orientation Groundspeed Altitude Reporting Facility
EDT Latitude Longitude Course Direction KTS MPH feet Rate Location/Type
09:55AM 44.8667 -93.1667 169° South 174 200 2,700  Level Minneapolis TRACON
09:56AM 44.8531 -93.1497 139° Southeast 184 212 3,500 2,460 Climbing Minneapolis Center
09:57AM 44.8036 -93.1317 165° South 216 249 6,100 1,680 Climbing Minneapolis Center
09:58AM 44.6974 -93.7342 209° Southwest  Level Estimated
09:58AM 44.7697 -93.1850 228° Southwest 227 261 7,000  Level Minneapolis Center
09:59AM 44.6005 -93.6898 162° South  Level FlightAware Approximate
09:59AM 44.7014 -93.2856 226° Southwest 276 318 7,500  Level Minneapolis Center
10:00AM 44.5550 -93.8179 207° Southwest  Level Estimated
10:00AM 44.6367 -93.3522 216° Southwest 290 334 10,000  Level Minneapolis Center
10:01AM 44.4548 -93.7916 169° South  Level FlightAware Approximate
10:01AM 44.5625 -93.4283 216° Southwest 335 386 11,000  Level Minneapolis Center
10:02AM 44.4789 -93.5147 216° Southwest 373 429 12,400 1,440 Climbing Minneapolis Center
10:03AM 44.3903 -93.6056 216° Southwest 394 453 14,000 1,620 Climbing Minneapolis Center
10:04AM 44.3025 -93.6969 217° Southwest 395 455 15,800 1,740 Climbing Minneapolis Center
10:05AM 44.2133 -93.7894 217° Southwest 401 461 17,600 1,680 Climbing Minneapolis Center
10:06AM 44.1206 -93.8683 211° Southwest 395 455 19,300 1,500 Climbing Minneapolis Center
10:07AM 44.0236 -93.9436 209° Southwest 399 459 20,700 1,560 Climbing Minneapolis Center
10:08AM 43.9072 -94.0361 210° Southwest 402 463 22,600 1,380 Climbing Minneapolis Center
10:09AM 43.8100 -94.1131 210° Southwest 403 464 23,600 960 Climbing Minneapolis Center
10:10AM 43.7097 -94.1925 210° Southwest 412 474 24,600 960 Climbing Minneapolis Center
10:11AM 43.6156 -94.2656 209° Southwest 420 483 25,600 960 Climbing Minneapolis Center
10:12AM 43.5133 -94.3450 209° Southwest 421 484 26,600 1,020 Climbing Minneapolis Center
10:13AM 43.3906 -94.4408 210° Southwest 422 486 27,800 1,020 Climbing Minneapolis Center
10:14AM 43.2883 -94.5200 209° Southwest 421 484 28,800 960 Climbing Minneapolis Center
10:15AM 43.1814 -94.5833 203° Southwest 419 482 29,800 1,020 Climbing Minneapolis Center
10:16AM 43.0867 -94.6661 213° Southwest 414 476 31,000 1,020 Climbing Minneapolis Center
10:17AM 43.0275 -94.7939 238° Southwest 402 463 31,900 840 Climbing Minneapolis Center
10:18AM 42.9786 -94.9286 244° Southwest 399 459 32,800 840 Climbing Minneapolis Center
10:19AM 42.9244 -95.0603 241° Southwest 398 458 33,700 840 Climbing Minneapolis Center
10:20AM 42.8694 -95.1881 240° Southwest 393 452 34,600 840 Climbing Minneapolis Center
10:21AM 42.8150 -95.3136 239° Southwest 386 444 35,500 900 Climbing Minneapolis Center
10:22AM 42.7486 -95.4622 239° Southwest 382 440 36,500 780 Climbing Minneapolis Center
10:23AM 42.6858 -95.5694 231° Southwest 382 440 37,100 600 Climbing Minneapolis Center
10:24AM 42.6081 -95.6644 222° Southwest 378 435 37,800 420 Climbing Minneapolis Center
10:25AM 42.5333 -95.7639 224° Southwest 377 434 38,000 60 Climbing Minneapolis Center
10:27AM 42.4536 -95.8603 222° Southwest 384 442 38,000 120 Level Minneapolis Center
10:28AM 42.3564 -95.9772 222° Southwest 388 447 38,400 360 Climbing Minneapolis Center
10:29AM 42.2814 -96.0797 225° Southwest 384 442 38,800 240 Climbing Minneapolis Center
10:30AM 42.1931 -96.2053 227° Southwest 384 442 39,000 60 Climbing Minneapolis Center
10:31AM 42.1544 -96.3083 243° Southwest 385 443 39,000 -360 Level Minneapolis Center
10:32AM 42.0989 -96.4628 244° Southwest 382 440 38,300 -540 Descending Minneapolis Center
10:33AM 42.0478 -96.6008 244° Southwest 395 455 38,000 -180 Descending Minneapolis Center
10:34AM 41.9969 -96.7403 244° Southwest 414 476 38,000  Level Minneapolis Center
10:35AM 41.9439 -96.8789 243° Southwest 419 482 38,000  Level Minneapolis Center
10:36AM 41.8911 -97.0181 243° Southwest 421 484 38,000  Level Minneapolis Center
10:37AM 41.8311 -97.1789 243° Southwest 408 470 38,000  Level Minneapolis Center
10:38AM 41.7803 -97.3131 243° Southwest 405 466 38,000  Level Minneapolis Center
10:39AM 41.7289 -97.4472 243° Southwest 406 467 38,000  Level Minneapolis Center
10:40AM 41.6772 -97.5808 243° Southwest 405 466 38,000  Level Minneapolis Center
10:41AM 41.6261 -97.7147 243° Southwest 405 466 38,000  Level Minneapolis Center
10:42AM 41.5739 -97.8481 242° Southwest 405 466 38,000  Level Minneapolis Center
10:43AM 41.5231 -97.9808 243° Southwest 404 465 38,000  Level Minneapolis Center
10:44AM 41.4683 -98.1194 242° Southwest 404 465 38,000  Level Minneapolis Center
10:45AM 41.4167 -98.2508 242° Southwest 402 463 38,000  Level Minneapolis Center
10:46AM 41.3608 -98.4108 245° Southwest 399 459 38,000  Level Minneapolis Center
10:47AM 41.3281 -98.5458 252° West 401 461 38,000  Level Minneapolis Center
10:48AM 41.2944 -98.6864 252° West 401 461 38,000  Level Minneapolis Center
10:49AM 41.2644 -98.8253 254° West 397 457 38,000  Level Minneapolis Center
10:50AM 41.2272 -98.9675 251° West 403 464 38,000  Level Minneapolis Center
10:51AM 41.1903 -99.1072 251° West 402 463 38,000  Level Minneapolis Center
10:52AM 41.1417 -99.2981 251° West 400 460 38,000  Level Denver Center
10:54AM 41.1008 -99.4592 251° West 398 458 38,000  Level Denver Center
10:55AM 41.0753 -99.6086 257° West 399 459 38,000  Level Denver Center
10:56AM 41.0486 -99.7519 256° West 401 461 38,000  Level Denver Center
10:57AM 41.0172 -99.9172 256° West 401 461 38,000  Level Denver Center
10:58AM 40.9914 -100.0553 256° West 403 464 38,000  Level Denver Center
10:59AM 40.9603 -100.2158 256° West 403 464 38,000  Level Denver Center
11:00AM 40.9342 -100.3522 256° West 402 463 38,000  Level Denver Center
11:01AM 40.9044 -100.5111 256° West 400 460 38,000  Level Denver Center
11:02AM 40.8803 -100.6383 256° West 398 458 38,000  Level Denver Center
11:03AM 40.8447 -100.8089 255° West 401 461 38,000  Level Denver Center
11:04AM 40.8161 -100.9536 255° West 398 458 38,000  Level Denver Center
11:05AM 40.7853 -101.1083 255° West 394 453 38,000  Level Denver Center
11:06AM 40.7536 -101.2644 255° West 394 453 38,000  Level Denver Center
11:07AM 40.7269 -101.3972 255° West 393 452 38,000  Level Denver Center
11:08AM 40.6956 -101.5514 255° West 391 450 38,000  Level Denver Center
11:09AM 40.6689 -101.6842 255° West 392 451 38,000  Level Denver Center
11:10AM 40.6369 -101.8381 255° West 391 450 38,000  Level Denver Center
11:12AM 40.6089 -101.9692 254° West 391 450 38,000 -240 Level Denver Center
11:13AM 40.5769 -102.1239 255° West 393 452 37,600 -600 Descending Denver Center
11:14AM 40.5478 -102.2614 254° West 405 466 36,800 -840 Descending Denver Center
11:15AM 40.5122 -102.4264 254° West 419 482 35,900 -780 Descending Denver Center
11:16AM 40.4828 -102.5697 255° West 422 486 35,200 -960 Descending Denver Center
11:17AM 40.4486 -102.7239 254° West 413 475 34,000 -1,680 Descending Denver Center
11:18AM 40.4197 -102.8639 255° West 401 461 31,800 -2,220 Descending Denver Center
11:19AM 40.3875 -103.0081 254° West 411 473 29,500 -2,280 Descending Denver Center
11:20AM 40.3544 -103.1569 254° West 424 488 27,100 -2,340 Descending Denver Center
11:21AM 40.3217 -103.3025 254° West 420 483 24,700 -2,580 Descending Denver Center
11:22AM 40.2844 -103.4736 254° West 408 470 21,800 -2,340 Descending Denver Center
11:23AM 40.2597 -103.5989 256° West 359 413 19,900 -2,040 Descending Denver Center
11:24AM 40.2597 -103.7200 270° West 319 367 17,700 -1,440 Descending Denver Center
11:25AM 40.2169 -103.8208 241° Southwest 309 356 17,000 -720 Descending Denver Center
11:26AM 40.2169 -103.9200 270° West 274 315 16,300 -1,080 Descending Denver Center
11:27AM 40.2150 -104.0225 269° West 263 303 14,800 -1,440 Descending Denver Center
11:28AM 40.1425 -104.0867 214° Southwest 264 304 13,100 -1,020 Descending Denver Center
11:29AM 40.0789 -104.1294 207° Southwest 261 300 12,600 -720 Descending Denver Center
11:30AM 40.0208 -104.1967 222° Southwest 260 299 11,700 -900 Descending Denver Center
11:31AM 39.9675 -104.2561 221° Southwest 255 293 10,800 -900 Descending Denver Center
11:32AM 39.9158 -104.3133 220° Southwest 230 265 9,900 -1,020 Descending Denver Center
11:33AM 39.8747 -104.3664 225° Southwest 214 246 8,700 -960 Descending Denver Center
11:34AM 39.8761 -104.4453 271° West 197 227 8,000 -720 Descending Denver Center